createdAt,value
2018-12-14T00:00:20.442Z,30.40
2018-12-14T00:02:47.939Z,30.45
2018-12-14T00:05:15.507Z,30.95
2018-12-14T00:07:43.052Z,29.35
2018-12-14T00:10:10.573Z,28.92
2018-12-14T00:12:38.038Z,26.00
2018-12-14T00:15:06.086Z,25.82
2018-12-14T00:17:33.675Z,35.90
2018-12-14T00:20:01.189Z,27.58
2018-12-14T00:22:28.699Z,23.87
2018-12-14T00:24:56.187Z,23.50
2018-12-14T00:27:23.989Z,22.48
2018-12-14T00:29:51.577Z,22.87
2018-12-14T00:32:19.294Z,24.70
2018-12-14T00:34:46.734Z,27.73
2018-12-14T00:37:14.368Z,17.60
2018-12-14T00:39:41.820Z,20.00
2018-12-14T00:42:09.342Z,21.55
2018-12-14T00:44:36.875Z,19.92
2018-12-14T00:47:04.395Z,24.50
2018-12-14T00:49:31.874Z,21.68
2018-12-14T00:51:59.420Z,22.75
2018-12-14T00:54:26.877Z,20.77
2018-12-14T00:56:54.407Z,20.02
2018-12-14T00:59:21.895Z,24.12
2018-12-14T01:01:49.415Z,18.07
2018-12-14T01:04:16.902Z,21.87
2018-12-14T01:06:44.408Z,21.00
2018-12-14T01:09:11.959Z,20.05
2018-12-14T01:11:39.498Z,18.30
2018-12-14T01:14:07.017Z,18.52
2018-12-14T01:16:34.529Z,22.75
2018-12-14T01:19:02.030Z,18.25
2018-12-14T01:21:29.489Z,17.70
2018-12-14T01:23:56.997Z,21.80
2018-12-14T01:26:24.679Z,19.07
2018-12-14T01:28:52.155Z,21.20
2018-12-14T01:31:19.723Z,20.32
2018-12-14T01:33:47.178Z,18.55
2018-12-14T01:36:14.674Z,20.30
2018-12-14T01:38:42.143Z,21.07
2018-12-14T01:41:09.626Z,21.80
2018-12-14T01:43:37.276Z,18.65
2018-12-14T01:46:04.763Z,17.37
2018-12-14T01:48:32.266Z,19.57
2018-12-14T01:50:59.738Z,19.75
2018-12-14T01:53:27.231Z,22.30
2018-12-14T01:55:54.737Z,18.95
2018-12-14T01:58:22.253Z,21.42
2018-12-14T02:00:49.738Z,18.60
2018-12-14T02:03:17.312Z,19.25
2018-12-14T02:05:44.884Z,26.50
2018-12-14T02:08:12.402Z,22.00
2018-12-14T02:10:39.984Z,20.68
2018-12-14T02:13:07.544Z,19.05
2018-12-14T02:15:35.042Z,21.75
2018-12-14T02:18:02.564Z,22.13
2018-12-14T02:20:30.057Z,22.85
2018-12-14T02:22:57.736Z,21.07
2018-12-14T02:25:25.280Z,23.05
2018-12-14T02:27:52.789Z,22.98
2018-12-14T02:30:32.234Z,22.30
2018-12-14T02:32:59.730Z,22.93
2018-12-14T02:35:27.206Z,25.15
2018-12-14T02:37:55.111Z,26.17
2018-12-14T02:40:22.628Z,22.70
2018-12-14T02:42:50.177Z,22.20
2018-12-14T02:45:17.718Z,27.50
2018-12-14T02:47:45.270Z,25.55
2018-12-14T02:50:13.054Z,24.15
2018-12-14T02:52:40.564Z,20.08
2018-12-14T02:55:08.068Z,21.65
2018-12-14T02:57:35.556Z,23.75
2018-12-14T03:00:04.362Z,23.87
2018-12-14T03:02:31.869Z,25.85
2018-12-14T03:04:59.381Z,24.95
2018-12-14T03:07:26.846Z,26.50
2018-12-14T03:09:54.334Z,23.05
2018-12-14T03:12:26.623Z,24.18
2018-12-14T03:14:51.345Z,22.77
2018-12-14T03:17:19.024Z,24.95
2018-12-14T03:19:46.528Z,25.52
2018-12-14T03:22:14.648Z,26.57
2018-12-14T03:24:42.109Z,24.52
2018-12-14T03:27:09.574Z,28.75
2018-12-14T03:29:37.101Z,24.45
2018-12-14T03:32:04.600Z,24.12
2018-12-14T03:34:32.145Z,25.43
2018-12-14T03:36:59.629Z,29.30
2018-12-14T03:39:27.143Z,24.67
2018-12-14T03:41:54.585Z,28.65
2018-12-14T03:44:22.091Z,26.52
2018-12-14T03:46:49.573Z,24.05
2018-12-14T03:49:17.067Z,23.45
2018-12-14T03:51:44.561Z,25.68
2018-12-14T03:54:12.145Z,29.50
2018-12-14T03:56:39.659Z,26.17
2018-12-14T03:59:07.153Z,26.17
2018-12-14T04:01:34.626Z,28.98
2018-12-14T04:04:02.166Z,26.35
2018-12-14T04:06:29.653Z,25.48
2018-12-14T04:08:57.128Z,25.72
2018-12-14T04:11:24.639Z,26.85
2018-12-14T04:13:52.212Z,29.27
2018-12-14T04:16:19.670Z,26.55
2018-12-14T04:18:47.127Z,27.35
2018-12-14T04:21:14.640Z,33.38
2018-12-14T04:23:42.095Z,26.30
2018-12-14T04:26:10.198Z,25.55
2018-12-14T04:28:37.676Z,25.55
2018-12-14T04:31:05.210Z,25.02
2018-12-14T04:33:32.874Z,25.60
2018-12-14T04:36:00.396Z,25.32
2018-12-14T04:38:27.842Z,22.75
2018-12-14T04:40:55.301Z,25.30
2018-12-14T04:43:22.824Z,23.65
2018-12-14T04:45:50.358Z,24.30
2018-12-14T04:48:17.826Z,21.25
2018-12-14T04:50:45.329Z,32.20
2018-12-14T04:53:12.782Z,24.67
2018-12-14T04:55:40.345Z,27.70
2018-12-14T04:58:07.886Z,28.57
2018-12-14T05:00:35.402Z,24.23
2018-12-14T05:03:02.953Z,26.97
2018-12-14T05:05:30.479Z,25.97
2018-12-14T05:07:57.948Z,22.22
2018-12-14T05:10:25.563Z,26.95
2018-12-14T05:12:56.032Z,27.58
2018-12-14T05:15:22.569Z,32.15
2018-12-14T05:17:50.015Z,27.67
2018-12-14T05:20:17.483Z,30.68
2018-12-14T05:22:44.989Z,33.67
2018-12-14T05:25:12.559Z,31.07
2018-12-14T05:27:40.052Z,27.98
2018-12-14T05:30:08.038Z,28.80
2018-12-14T05:32:35.559Z,31.45
2018-12-14T05:35:03.077Z,34.55
2018-12-14T05:37:30.568Z,33.08
2018-12-14T05:39:58.145Z,32.67
2018-12-14T05:42:25.621Z,34.70
2018-12-14T05:44:53.075Z,37.83
2018-12-14T05:47:20.557Z,31.62
2018-12-14T05:49:48.055Z,38.88
2018-12-14T05:52:15.563Z,35.75
2018-12-14T05:54:43.141Z,35.45
2018-12-14T05:57:10.739Z,37.55
2018-12-14T05:59:38.269Z,35.95
2018-12-14T06:02:05.864Z,34.25
2018-12-14T06:04:33.351Z,38.73
2018-12-14T06:07:00.827Z,38.38
2018-12-14T06:09:28.301Z,35.03
2018-12-14T06:11:55.760Z,35.28
2018-12-14T06:14:23.279Z,35.75
2018-12-14T06:16:50.765Z,39.48
2018-12-14T06:19:18.329Z,41.58
2018-12-14T06:21:45.879Z,33.15
2018-12-14T06:24:13.346Z,32.53
2018-12-14T06:26:40.902Z,38.83
2018-12-14T06:29:08.378Z,40.35
2018-12-14T06:31:35.944Z,37.55
2018-12-14T06:34:03.465Z,31.65
2018-12-14T06:36:31.007Z,36.25
2018-12-14T06:38:58.538Z,38.08
2018-12-14T06:41:26.051Z,32.55
2018-12-14T06:43:53.673Z,34.35
2018-12-14T06:46:21.126Z,36.85
2018-12-14T06:48:48.623Z,31.42
2018-12-14T06:51:16.141Z,30.40
2018-12-14T06:53:43.624Z,33.33
2018-12-14T06:56:11.109Z,35.75
2018-12-14T06:58:38.641Z,35.65
2018-12-14T07:01:06.157Z,34.95
2018-12-14T07:03:33.610Z,35.98
2018-12-14T07:06:01.103Z,34.55
2018-12-14T07:08:28.658Z,33.40
2018-12-14T07:10:56.121Z,34.92
2018-12-14T07:13:23.591Z,31.40
2018-12-14T07:15:51.093Z,39.03
2018-12-14T07:18:18.569Z,41.80
2018-12-14T07:20:46.079Z,37.58
2018-12-14T07:23:13.545Z,40.92
2018-12-14T07:25:41.016Z,36.35
2018-12-14T07:28:08.489Z,36.77
2018-12-14T07:30:36.017Z,42.73
2018-12-14T07:33:03.501Z,42.40
2018-12-14T07:35:31.078Z,41.63
2018-12-14T07:37:58.592Z,37.83
2018-12-14T07:40:26.043Z,38.02
2018-12-14T07:42:53.536Z,36.58
2018-12-14T07:45:20.995Z,39.08
2018-12-14T07:47:48.592Z,37.63
2018-12-14T07:50:16.079Z,37.65
2018-12-14T07:52:43.582Z,35.88
2018-12-14T07:55:11.081Z,35.88
2018-12-14T07:57:38.546Z,40.83
2018-12-14T08:00:08.066Z,36.90
2018-12-14T08:02:35.620Z,38.85
2018-12-14T08:05:04.056Z,40.50
2018-12-14T08:07:31.548Z,38.13
2018-12-14T08:09:59.038Z,38.35
2018-12-14T08:12:26.565Z,36.65
2018-12-14T08:14:54.068Z,40.73
2018-12-14T08:17:21.556Z,40.05
2018-12-14T08:19:48.992Z,35.70
2018-12-14T08:22:16.493Z,44.93
2018-12-14T08:24:44.014Z,43.48
2018-12-14T08:27:11.568Z,39.20
2018-12-14T08:29:39.227Z,48.38
2018-12-14T08:32:06.715Z,35.28
2018-12-14T08:34:34.288Z,35.23
2018-12-14T08:37:01.755Z,45.65
2018-12-14T08:39:29.223Z,39.05
2018-12-14T08:41:56.701Z,40.73
2018-12-14T08:44:24.235Z,37.73
2018-12-14T08:46:51.779Z,37.88
2018-12-14T08:49:19.250Z,37.28
2018-12-14T08:51:46.832Z,36.17
2018-12-14T08:54:14.337Z,34.67
2018-12-14T08:56:41.966Z,35.05
2018-12-14T08:59:09.483Z,36.58
2018-12-14T09:01:36.977Z,37.08
2018-12-14T09:04:04.479Z,38.83
2018-12-14T09:06:32.018Z,35.45
2018-12-14T09:08:59.591Z,41.23
2018-12-14T09:11:27.135Z,31.02
2018-12-14T09:13:54.647Z,38.10
2018-12-14T09:16:22.196Z,33.35
2018-12-14T09:18:49.756Z,37.85
2018-12-14T09:21:17.258Z,28.77
2018-12-14T09:23:44.762Z,34.45
2018-12-14T09:26:12.532Z,31.55
2018-12-14T09:28:40.198Z,30.48
2018-12-14T09:31:07.707Z,31.93
2018-12-14T09:33:35.294Z,31.57
2018-12-14T09:36:02.822Z,43.25
2018-12-14T09:38:30.311Z,27.90
2018-12-14T09:40:57.976Z,34.88
2018-12-14T09:43:25.509Z,33.48
2018-12-14T09:45:53.008Z,30.62
2018-12-14T09:48:20.584Z,29.50
2018-12-14T09:50:48.291Z,31.20
2018-12-14T09:53:15.852Z,30.02
2018-12-14T09:55:43.385Z,29.85
2018-12-14T09:58:10.872Z,31.33
2018-12-14T10:00:38.388Z,31.57
2018-12-14T10:03:05.864Z,33.42
2018-12-14T10:05:33.439Z,32.45
2018-12-14T10:08:00.920Z,27.45
2018-12-14T10:10:28.444Z,34.92
2018-12-14T10:12:55.931Z,27.32
2018-12-14T10:15:23.525Z,34.95
2018-12-14T10:17:51.023Z,29.37
2018-12-14T10:20:18.554Z,29.50
2018-12-14T10:22:46.021Z,25.80
2018-12-14T10:25:13.514Z,25.27
2018-12-14T10:27:41.015Z,30.37
2018-12-14T10:30:09.548Z,28.77
2018-12-14T10:32:37.078Z,26.10
2018-12-14T10:35:07.666Z,26.60
2018-12-14T10:37:35.178Z,25.40
2018-12-14T10:40:02.692Z,28.45
2018-12-14T10:42:30.686Z,25.45
2018-12-14T10:44:58.279Z,19.95
2018-12-14T10:47:25.780Z,25.27
2018-12-14T10:49:53.334Z,23.05
2018-12-14T10:52:20.925Z,28.17
2018-12-14T10:54:48.589Z,24.20
2018-12-14T10:57:16.343Z,29.25
2018-12-14T10:59:44.062Z,26.05
2018-12-14T11:02:11.746Z,23.42
2018-12-14T11:04:39.954Z,29.32
2018-12-14T11:07:07.494Z,31.45
2018-12-14T11:09:35.385Z,23.18
2018-12-14T11:12:02.901Z,17.27
2018-12-14T11:14:30.383Z,21.02
2018-12-14T11:16:57.855Z,20.85
2018-12-14T11:19:25.320Z,22.85
2018-12-14T11:21:52.826Z,24.75
2018-12-14T11:24:20.309Z,21.65
2018-12-14T11:26:47.836Z,20.37
2018-12-14T11:29:15.390Z,20.68
2018-12-14T11:31:42.946Z,42.43
2018-12-14T11:34:10.500Z,25.37
2018-12-14T11:36:38.002Z,22.30
2018-12-14T11:39:06.200Z,18.65
2018-12-14T11:41:33.746Z,19.80
2018-12-14T11:44:01.207Z,20.27
2018-12-14T11:46:28.787Z,17.37
2018-12-14T11:48:56.414Z,15.00
2018-12-14T11:51:23.961Z,15.90
2018-12-14T11:53:51.437Z,14.13
2018-12-14T11:56:19.021Z,14.55
2018-12-14T11:58:46.606Z,17.37
2018-12-14T12:01:14.144Z,16.05
2018-12-14T12:03:42.883Z,21.62
2018-12-14T12:06:10.637Z,16.93
2018-12-14T12:08:38.206Z,16.57
2018-12-14T12:11:05.702Z,17.07
2018-12-14T12:13:33.212Z,19.20
2018-12-14T12:16:00.709Z,17.48
2018-12-14T12:18:28.236Z,21.17
2018-12-14T12:20:55.751Z,21.05
2018-12-14T12:23:23.853Z,16.37
2018-12-14T12:25:51.346Z,17.35
2018-12-14T12:28:18.916Z,15.13
2018-12-14T12:30:46.625Z,17.40
2018-12-14T12:33:14.148Z,16.87
2018-12-14T12:35:41.795Z,21.80
2018-12-14T12:38:09.309Z,19.15
2018-12-14T12:40:37.474Z,17.55
2018-12-14T12:43:04.958Z,18.40
2018-12-14T12:45:32.490Z,23.27
2018-12-14T12:48:00.045Z,23.42
2018-12-14T12:50:27.526Z,22.80
2018-12-14T12:52:55.165Z,18.60
2018-12-14T12:55:22.710Z,22.55
2018-12-14T12:57:50.186Z,22.82
2018-12-14T13:00:17.765Z,23.52
2018-12-14T13:02:45.247Z,27.25
2018-12-14T13:05:12.808Z,25.10
2018-12-14T13:07:40.320Z,24.55
2018-12-14T13:10:07.855Z,19.20
2018-12-14T13:12:35.342Z,17.20
2018-12-14T13:15:03.125Z,25.60
2018-12-14T13:17:30.693Z,23.18
2018-12-14T13:19:58.189Z,21.90
2018-12-14T13:22:25.691Z,23.62
2018-12-14T13:24:53.259Z,19.57
2018-12-14T13:27:20.788Z,22.62
2018-12-14T13:29:48.327Z,19.00
2018-12-14T13:32:16.742Z,18.35
2018-12-14T13:34:44.237Z,18.92
2018-12-14T13:37:11.700Z,19.27
2018-12-14T13:39:39.206Z,17.73
2018-12-14T13:42:06.815Z,15.43
2018-12-14T13:44:34.649Z,20.88
2018-12-14T13:47:02.214Z,20.37
2018-12-14T13:49:29.878Z,18.95
2018-12-14T13:51:57.436Z,24.07
2018-12-14T13:54:24.928Z,20.08
2018-12-14T13:56:52.541Z,19.67
2018-12-14T13:59:20.023Z,22.98
2018-12-14T14:01:47.584Z,20.72
2018-12-14T14:04:15.030Z,25.70
2018-12-14T14:06:42.511Z,33.25
2018-12-14T14:09:10.083Z,27.73
2018-12-14T14:11:37.604Z,29.95
2018-12-14T14:14:05.121Z,26.35
2018-12-14T14:16:32.575Z,27.15
2018-12-14T14:19:00.063Z,26.48
2018-12-14T14:21:27.559Z,27.07
2018-12-14T14:23:55.129Z,31.48
2018-12-14T14:26:22.589Z,33.48
2018-12-14T14:28:50.069Z,33.20
2018-12-14T14:31:17.583Z,44.70
2018-12-14T14:33:45.115Z,33.85
2018-12-14T14:36:12.634Z,33.70
2018-12-14T14:38:40.094Z,34.35
2018-12-14T14:41:07.622Z,35.83
2018-12-14T14:43:35.132Z,34.30
2018-12-14T14:46:02.711Z,44.03
2018-12-14T14:48:30.293Z,32.60
2018-12-14T14:50:57.831Z,35.80
2018-12-14T14:53:25.418Z,26.80
2018-12-14T14:55:52.861Z,33.58
2018-12-14T14:58:20.421Z,33.33
2018-12-14T15:00:47.920Z,39.42
2018-12-14T15:03:15.369Z,33.53
2018-12-14T15:05:42.908Z,35.38
2018-12-14T15:08:10.409Z,38.33
2018-12-14T15:10:37.875Z,37.35
2018-12-14T15:13:05.418Z,35.55
2018-12-14T15:15:32.890Z,35.63
2018-12-14T15:18:00.371Z,33.20
2018-12-14T15:20:27.821Z,35.80
2018-12-14T15:22:55.403Z,42.50
2018-12-14T15:25:22.973Z,41.53
2018-12-14T15:27:50.494Z,37.42
2018-12-14T15:30:18.082Z,35.17
2018-12-14T15:32:45.576Z,56.00
2018-12-14T15:35:13.054Z,39.70
2018-12-14T15:37:40.570Z,44.58
2018-12-14T15:40:09.078Z,37.33
2018-12-14T15:42:36.554Z,38.10
2018-12-14T15:45:04.375Z,39.18
2018-12-14T15:47:31.829Z,46.63
2018-12-14T15:49:59.331Z,44.98
2018-12-14T15:52:27.979Z,41.98
2018-12-14T15:54:55.793Z,40.58
2018-12-14T15:57:23.279Z,51.55
2018-12-14T15:59:50.786Z,42.73
2018-12-14T16:02:18.296Z,42.38
2018-12-14T16:04:45.916Z,48.50
2018-12-14T16:07:13.443Z,41.77
2018-12-14T16:09:40.994Z,38.45
2018-12-14T16:12:08.501Z,35.78
2018-12-14T16:14:36.199Z,43.35
2018-12-14T16:17:03.873Z,44.73
2018-12-14T16:19:31.390Z,42.45
2018-12-14T16:21:59.064Z,43.25
2018-12-14T16:24:26.553Z,44.25
2018-12-14T16:26:54.014Z,43.63
2018-12-14T16:29:21.491Z,47.53
2018-12-14T16:31:49.030Z,43.60
2018-12-14T16:34:16.508Z,44.20
2018-12-14T16:36:44.076Z,52.10
2018-12-14T16:39:11.575Z,55.83
2018-12-14T16:41:39.076Z,42.73
2018-12-14T16:44:06.609Z,46.37
2018-12-14T16:46:34.110Z,52.45
2018-12-14T16:49:01.595Z,43.87
2018-12-14T16:51:29.955Z,44.00
2018-12-14T16:54:04.847Z,45.15
2018-12-14T16:56:32.382Z,42.43
2018-12-14T16:58:59.947Z,48.08
2018-12-14T17:01:27.600Z,44.30
2018-12-14T17:03:55.077Z,47.43
2018-12-14T17:06:22.591Z,46.23
2018-12-14T17:08:50.143Z,41.00
2018-12-14T17:11:17.695Z,44.70
2018-12-14T17:13:45.194Z,43.13
2018-12-14T17:16:12.912Z,45.05
2018-12-14T17:18:40.370Z,48.90
2018-12-14T17:21:07.847Z,51.68
2018-12-14T17:23:35.373Z,39.90
2018-12-14T17:26:02.839Z,48.65
2018-12-14T17:28:30.322Z,41.02
2018-12-14T17:30:57.822Z,48.68
2018-12-14T17:33:25.440Z,44.40
2018-12-14T17:35:52.922Z,51.37
2018-12-14T17:38:20.415Z,45.43
2018-12-14T17:40:48.529Z,50.00
2018-12-14T17:43:16.118Z,46.30
2018-12-14T17:45:43.628Z,46.13
2018-12-14T17:48:11.135Z,47.73
2018-12-14T17:50:38.706Z,45.10
2018-12-14T17:53:06.190Z,53.10
2018-12-14T17:55:33.775Z,43.33
2018-12-14T17:58:01.307Z,50.28
2018-12-14T18:00:28.799Z,49.13
2018-12-14T18:02:56.285Z,45.23
2018-12-14T18:05:23.785Z,47.15
2018-12-14T18:07:51.243Z,48.90
2018-12-14T18:10:18.767Z,50.85
2018-12-14T18:12:46.324Z,50.08
2018-12-14T18:15:13.851Z,51.75
2018-12-14T18:17:41.353Z,49.15
2018-12-14T18:20:08.928Z,48.95
2018-12-14T18:22:36.748Z,54.50
2018-12-14T18:25:04.889Z,49.95
2018-12-14T18:27:32.367Z,46.90
2018-12-14T18:30:00.092Z,48.65
2018-12-14T18:32:27.559Z,49.67
2018-12-14T18:34:55.049Z,46.40
2018-12-14T18:37:22.514Z,47.40
2018-12-14T18:39:50.022Z,50.88
2018-12-14T18:42:17.488Z,54.18
2018-12-14T18:44:44.990Z,50.28
2018-12-14T18:47:12.501Z,48.15
2018-12-14T18:49:39.999Z,55.67
2018-12-14T18:52:07.588Z,51.77
2018-12-14T18:54:35.119Z,60.33
2018-12-14T18:57:02.659Z,46.42
2018-12-14T18:59:30.257Z,51.98
2018-12-14T19:01:57.771Z,51.58
2018-12-14T19:04:25.352Z,53.17
2018-12-14T19:06:53.098Z,53.33
2018-12-14T19:09:20.712Z,53.98
2018-12-14T19:11:48.193Z,54.98
2018-12-14T19:14:16.391Z,52.62
2018-12-14T19:16:43.890Z,54.08
2018-12-14T19:19:11.455Z,50.63
2018-12-14T19:21:39.046Z,53.15
2018-12-14T19:24:06.584Z,52.53
2018-12-14T19:26:34.068Z,50.15
2018-12-14T19:29:02.194Z,50.10
2018-12-14T19:31:29.900Z,54.08
2018-12-14T19:33:57.435Z,56.98
2018-12-14T19:36:24.950Z,52.25
2018-12-14T19:38:52.450Z,53.25
2018-12-14T19:41:19.940Z,42.98
2018-12-14T19:43:47.461Z,52.38
2018-12-14T19:46:14.960Z,57.75
2018-12-14T19:48:42.500Z,55.48
2018-12-14T19:51:10.012Z,50.95
2018-12-14T19:53:37.570Z,57.67
2018-12-14T19:56:05.117Z,53.68
2018-12-14T19:58:32.692Z,47.33
2018-12-14T20:01:00.344Z,60.88
2018-12-14T20:03:27.941Z,46.28
2018-12-14T20:05:56.099Z,49.13
2018-12-14T20:08:24.306Z,58.30
2018-12-14T20:10:51.839Z,56.20
2018-12-14T20:13:19.603Z,51.68
2018-12-14T20:15:47.130Z,53.10
2018-12-14T20:18:14.642Z,54.25
2018-12-14T20:20:42.328Z,50.52
2018-12-14T20:23:10.698Z,57.27
2018-12-14T20:25:38.787Z,112.50
2018-12-14T20:28:06.280Z,50.48
2018-12-14T20:30:33.758Z,48.50
2018-12-14T20:33:03.379Z,49.77
2018-12-14T20:35:30.971Z,56.63
2018-12-14T20:37:58.758Z,51.00
2018-12-14T20:40:26.437Z,51.98
2018-12-14T20:42:53.962Z,55.35
2018-12-14T20:45:21.539Z,49.15
2018-12-14T20:47:49.704Z,51.85
2018-12-14T20:50:17.202Z,47.00
2018-12-14T20:52:44.718Z,49.70
2018-12-14T20:55:12.332Z,48.52
2018-12-14T20:57:40.203Z,45.55
2018-12-14T21:00:08.689Z,48.30
2018-12-14T21:02:37.080Z,44.25
2018-12-14T21:05:05.457Z,44.75
2018-12-14T21:07:32.998Z,44.35
2018-12-14T21:10:00.534Z,51.15
2018-12-14T21:12:29.467Z,50.55
2018-12-14T21:14:57.057Z,45.92
2018-12-14T21:17:24.532Z,49.67
2018-12-14T21:19:53.615Z,45.35
2018-12-14T21:22:21.155Z,44.98
2018-12-14T21:24:48.733Z,46.40
2018-12-14T21:27:16.205Z,52.43
2018-12-14T21:29:43.815Z,43.42
2018-12-14T21:32:11.314Z,38.42
2018-12-14T21:34:38.794Z,46.65
2018-12-14T21:37:06.310Z,45.00
2018-12-14T21:39:34.672Z,45.05
2018-12-14T21:42:02.145Z,47.33
2018-12-14T21:44:29.638Z,42.78
2018-12-14T21:46:57.901Z,41.63
2018-12-14T21:49:26.036Z,47.25
2018-12-14T21:51:53.500Z,53.48
2018-12-14T21:54:21.032Z,44.65
2018-12-14T21:56:48.477Z,43.40
2018-12-14T21:59:15.955Z,41.75
2018-12-14T22:01:43.540Z,42.27
2018-12-14T22:04:11.089Z,42.25
2018-12-14T22:06:38.564Z,43.52
2018-12-14T22:09:07.542Z,44.05
2018-12-14T22:11:35.031Z,42.93
2018-12-14T22:14:02.603Z,40.25
2018-12-14T22:16:30.105Z,37.98
2018-12-14T22:18:57.629Z,42.88
2018-12-14T22:21:25.275Z,39.92
2018-12-14T22:23:52.828Z,42.60
2018-12-14T22:26:20.428Z,41.55
2018-12-14T22:28:47.987Z,41.90
2018-12-14T22:31:15.536Z,41.58
2018-12-14T22:33:43.071Z,41.45
2018-12-14T22:36:10.550Z,42.27
2018-12-14T22:38:38.142Z,42.10
2018-12-14T22:41:05.663Z,37.45
2018-12-14T22:43:33.131Z,48.20
2018-12-14T22:46:00.635Z,39.48
2018-12-14T22:48:28.166Z,37.48
2018-12-14T22:50:55.674Z,39.30
2018-12-14T22:53:23.191Z,43.25
2018-12-14T22:55:50.671Z,41.18
2018-12-14T22:58:18.207Z,37.93
2018-12-14T23:00:51.737Z,38.38
2018-12-14T23:03:19.327Z,39.20
2018-12-14T23:05:46.789Z,35.28
2018-12-14T23:08:14.259Z,37.53
2018-12-14T23:10:41.771Z,37.15
2018-12-14T23:13:09.290Z,36.33
2018-12-14T23:15:36.797Z,43.35
2018-12-14T23:18:04.320Z,36.93
2018-12-14T23:20:31.837Z,33.40
2018-12-14T23:22:59.398Z,36.63
2018-12-14T23:25:26.919Z,32.55
2018-12-14T23:27:54.433Z,36.38
2018-12-14T23:30:21.985Z,40.95
2018-12-14T23:32:49.479Z,33.05
2018-12-14T23:35:16.957Z,31.42
2018-12-14T23:37:44.430Z,37.00
2018-12-14T23:40:11.933Z,31.40
2018-12-14T23:42:39.416Z,36.35
2018-12-14T23:45:06.971Z,30.32
2018-12-14T23:47:34.525Z,29.40
2018-12-14T23:50:02.127Z,36.98
2018-12-14T23:52:29.616Z,34.40
2018-12-14T23:54:57.139Z,28.20
2018-12-14T23:57:24.689Z,26.82
2018-12-14T23:59:52.162Z,29.63
